createdAt,value
2018-10-06T00:00:32.090Z,9.30
2018-10-06T00:02:36.649Z,9.43
2018-10-06T00:04:40.364Z,9.40
2018-10-06T00:06:44.136Z,9.10
2018-10-06T00:08:47.943Z,8.90
2018-10-06T00:10:51.653Z,8.63
2018-10-06T00:12:55.447Z,8.37
2018-10-06T00:14:59.352Z,9.70
2018-10-06T00:17:03.121Z,8.33
2018-10-06T00:19:06.970Z,8.10
2018-10-06T00:21:10.739Z,8.50
2018-10-06T00:23:14.619Z,8.80
2018-10-06T00:25:18.379Z,9.00
2018-10-06T00:27:22.154Z,9.73
2018-10-06T00:29:26.010Z,8.83
2018-10-06T00:31:29.756Z,8.63
2018-10-06T00:33:33.641Z,8.43
2018-10-06T00:35:37.386Z,9.07
2018-10-06T00:37:41.635Z,8.57
2018-10-06T00:39:45.487Z,8.50
2018-10-06T00:41:49.268Z,8.10
2018-10-06T00:43:53.026Z,8.77
2018-10-06T00:45:56.783Z,8.00
2018-10-06T00:48:00.609Z,9.60
2018-10-06T00:50:04.545Z,8.50
2018-10-06T00:52:08.526Z,10.20
2018-10-06T00:54:12.306Z,9.20
2018-10-06T00:56:16.069Z,9.20
2018-10-06T00:58:19.842Z,10.03
2018-10-06T01:00:23.594Z,9.30
2018-10-06T01:02:27.302Z,9.37
2018-10-06T01:04:31.045Z,8.80
2018-10-06T01:06:34.798Z,8.07
2018-10-06T01:08:38.548Z,9.10
2018-10-06T01:10:42.289Z,8.50
2018-10-06T01:12:46.094Z,8.47
2018-10-06T01:14:49.858Z,8.50
2018-10-06T01:16:53.657Z,8.77
2018-10-06T01:18:57.423Z,8.57
2018-10-06T01:21:01.174Z,9.67
2018-10-06T01:23:04.987Z,8.90
2018-10-06T01:25:08.735Z,9.23
2018-10-06T01:27:12.487Z,9.57
2018-10-06T01:29:16.209Z,8.90
2018-10-06T01:31:20.136Z,9.90
2018-10-06T01:33:23.899Z,8.20
2018-10-06T01:35:27.670Z,9.07
2018-10-06T01:37:31.591Z,9.83
2018-10-06T01:39:35.409Z,8.30
2018-10-06T01:41:39.190Z,9.10
2018-10-06T01:43:42.987Z,7.93
2018-10-06T01:45:47.157Z,8.13
2018-10-06T01:47:50.971Z,8.90
2018-10-06T01:49:54.766Z,9.33
2018-10-06T01:51:58.542Z,8.10
2018-10-06T01:54:02.295Z,9.20
2018-10-06T01:56:06.097Z,8.43
2018-10-06T01:58:09.837Z,9.23
2018-10-06T02:00:13.581Z,8.53
2018-10-06T02:05:24.370Z,9.83
2018-10-06T02:07:28.134Z,9.17
2018-10-06T02:09:31.994Z,8.93
2018-10-06T02:11:35.990Z,8.87
2018-10-06T02:13:39.744Z,8.90
2018-10-06T02:15:43.519Z,8.40
2018-10-06T02:17:47.240Z,8.53
2018-10-06T02:19:50.995Z,8.73
2018-10-06T02:21:54.889Z,8.47
2018-10-06T02:23:58.628Z,8.53
2018-10-06T02:26:02.459Z,9.47
2018-10-06T02:28:06.638Z,9.10
2018-10-06T02:30:10.433Z,8.40
2018-10-06T02:32:14.234Z,8.27
2018-10-06T02:34:18.002Z,9.30
2018-10-06T02:36:21.841Z,9.00
2018-10-06T02:38:25.585Z,9.60
2018-10-06T02:40:29.364Z,10.07
2018-10-06T02:42:33.160Z,8.43
2018-10-06T02:44:36.935Z,9.27
2018-10-06T02:46:40.775Z,8.47
2018-10-06T02:48:44.527Z,8.53
2018-10-06T02:50:48.631Z,8.60
2018-10-06T02:52:52.436Z,9.10
2018-10-06T02:54:56.183Z,8.60
2018-10-06T02:56:59.948Z,9.10
2018-10-06T02:59:03.730Z,8.73
2018-10-06T03:01:09.007Z,9.73
2018-10-06T03:03:12.777Z,8.90
2018-10-06T03:05:16.613Z,8.60
2018-10-06T03:07:20.361Z,9.30
2018-10-06T03:09:24.142Z,9.13
2018-10-06T03:11:28.072Z,9.80
2018-10-06T03:13:31.833Z,9.13
2018-10-06T03:15:35.604Z,8.50
2018-10-06T03:17:39.361Z,9.60
2018-10-06T03:19:43.099Z,9.57
2018-10-06T03:21:46.826Z,8.57
2018-10-06T03:23:50.574Z,8.80
2018-10-06T03:25:54.326Z,8.67
2018-10-06T03:27:58.189Z,8.10
2018-10-06T03:30:01.974Z,9.43
2018-10-06T03:32:05.739Z,8.63
2018-10-06T03:34:09.652Z,8.70
2018-10-06T03:36:13.480Z,9.47
2018-10-06T03:38:17.209Z,8.67
2018-10-06T03:40:20.971Z,9.43
2018-10-06T03:42:24.732Z,8.47
2018-10-06T03:44:28.488Z,8.93
2018-10-06T03:46:32.220Z,10.07
2018-10-06T03:48:35.971Z,10.93
2018-10-06T03:50:39.765Z,9.67
2018-10-06T03:52:43.613Z,9.80
2018-10-06T03:54:47.369Z,11.50
2018-10-06T03:56:51.083Z,10.97
2018-10-06T03:58:54.901Z,10.73
2018-10-06T04:00:58.658Z,11.50
2018-10-06T04:03:02.404Z,10.43
2018-10-06T04:05:06.264Z,11.33
2018-10-06T04:07:10.041Z,10.50
2018-10-06T04:09:13.791Z,11.10
2018-10-06T04:11:17.593Z,10.30
2018-10-06T04:13:21.325Z,11.00
2018-10-06T04:15:25.282Z,11.10
2018-10-06T04:17:29.052Z,11.43
2018-10-06T04:19:32.814Z,11.77
2018-10-06T04:21:41.278Z,11.07
2018-10-06T04:23:45.049Z,11.23
2018-10-06T04:25:48.751Z,11.60
2018-10-06T04:27:52.518Z,11.70
2018-10-06T04:29:56.255Z,12.57
2018-10-06T04:32:00.113Z,13.10
2018-10-06T04:34:03.850Z,11.90
2018-10-06T04:36:07.809Z,11.17
2018-10-06T04:38:11.578Z,11.53
2018-10-06T04:40:15.356Z,10.77
2018-10-06T04:42:19.099Z,11.20
2018-10-06T04:44:23.047Z,11.20
2018-10-06T04:46:26.783Z,10.33
2018-10-06T04:48:30.521Z,11.30
2018-10-06T04:50:34.304Z,11.30
2018-10-06T04:52:38.037Z,11.27
2018-10-06T04:54:41.938Z,11.43
2018-10-06T04:56:45.795Z,11.20
2018-10-06T04:58:49.669Z,11.68
2018-10-06T05:00:53.601Z,11.60
2018-10-06T05:02:57.388Z,11.33
2018-10-06T05:05:01.179Z,12.50
2018-10-06T05:07:04.931Z,11.57
2018-10-06T05:09:09.097Z,10.93
2018-10-06T05:11:13.077Z,10.50
2018-10-06T05:13:16.837Z,10.40
2018-10-06T05:15:20.696Z,10.93
2018-10-06T05:17:24.415Z,10.07
2018-10-06T05:19:28.319Z,10.80
2018-10-06T05:21:32.043Z,9.23
2018-10-06T05:23:36.098Z,10.03
2018-10-06T05:25:39.833Z,10.70
2018-10-06T05:27:43.799Z,9.53
2018-10-06T05:29:47.638Z,10.60
2018-10-06T05:31:51.444Z,10.90
2018-10-06T05:33:55.368Z,9.83
2018-10-06T05:35:59.097Z,9.97
2018-10-06T05:38:02.940Z,10.03
2018-10-06T05:40:06.937Z,11.80
2018-10-06T05:42:10.666Z,12.07
2018-10-06T05:44:14.469Z,10.90
2018-10-06T05:46:18.425Z,10.77
2018-10-06T05:48:22.636Z,9.80
2018-10-06T05:50:27.564Z,10.20
2018-10-06T05:52:31.304Z,9.70
2018-10-06T05:54:35.060Z,9.20
2018-10-06T05:56:38.881Z,9.77
2018-10-06T05:58:42.621Z,9.50
2018-10-06T06:00:46.604Z,10.23
2018-10-06T06:02:50.408Z,9.53
2018-10-06T06:04:54.287Z,10.00
2018-10-06T06:06:58.060Z,9.20
2018-10-06T06:09:01.827Z,10.00
2018-10-06T06:11:05.696Z,9.13
2018-10-06T06:13:09.402Z,10.30
2018-10-06T06:15:13.218Z,10.67
2018-10-06T06:17:16.979Z,10.63
2018-10-06T06:19:20.660Z,10.50
2018-10-06T06:21:24.402Z,10.97
2018-10-06T06:23:28.339Z,9.80
2018-10-06T06:25:32.109Z,9.53
2018-10-06T06:27:35.888Z,9.70
2018-10-06T06:29:39.667Z,8.93
2018-10-06T06:31:43.727Z,9.73
2018-10-06T06:33:47.515Z,9.07
2018-10-06T06:35:51.276Z,8.73
2018-10-06T06:37:55.328Z,8.60
2018-10-06T06:39:59.126Z,8.40
2018-10-06T06:42:02.958Z,8.53
2018-10-06T06:44:06.963Z,8.77
2018-10-06T06:46:10.768Z,8.70
2018-10-06T06:48:14.544Z,8.80
2018-10-06T06:50:18.281Z,8.90
2018-10-06T06:52:22.115Z,9.70
2018-10-06T06:54:26.162Z,9.77
2018-10-06T06:56:30.045Z,8.90
2018-10-06T06:58:33.838Z,9.53
2018-10-06T07:00:37.635Z,9.17
2018-10-06T07:02:42.226Z,7.90
2018-10-06T07:04:46.244Z,9.57
2018-10-06T07:06:50.147Z,8.73
2018-10-06T07:08:54.104Z,7.90
2018-10-06T07:10:57.889Z,8.47
2018-10-06T07:13:01.734Z,8.00
2018-10-06T07:15:05.633Z,8.17
2018-10-06T07:17:09.411Z,7.40
2018-10-06T07:19:13.407Z,7.20
2018-10-06T07:21:17.144Z,7.23
2018-10-06T07:23:21.190Z,7.37
2018-10-06T07:25:25.213Z,7.60
2018-10-06T07:27:29.043Z,6.57
2018-10-06T07:29:32.812Z,6.47
2018-10-06T07:31:36.573Z,7.17
2018-10-06T07:33:40.357Z,6.90
2018-10-06T07:35:44.063Z,6.60
2018-10-06T07:37:47.806Z,6.23
2018-10-06T07:39:51.580Z,6.63
2018-10-06T07:41:55.504Z,6.83
2018-10-06T07:43:59.267Z,6.60
2018-10-06T07:46:03.197Z,6.33
2018-10-06T07:48:07.097Z,6.05
2018-10-06T07:50:11.148Z,6.20
2018-10-06T07:52:14.967Z,6.30
2018-10-06T07:54:18.996Z,6.33
2018-10-06T07:56:22.866Z,6.00
2018-10-06T07:58:26.669Z,4.92
2018-10-06T08:00:30.452Z,6.60
2018-10-06T08:02:34.183Z,5.97
2018-10-06T08:04:37.948Z,5.65
2018-10-06T08:06:41.737Z,6.15
2018-10-06T08:08:45.530Z,5.80
2018-10-06T08:10:49.358Z,5.45
2018-10-06T08:12:53.185Z,6.20
2018-10-06T08:14:56.943Z,6.70
2018-10-06T08:17:00.712Z,6.12
2018-10-06T08:19:04.476Z,6.80
2018-10-06T08:21:08.287Z,8.00
2018-10-06T08:23:12.159Z,7.90
2018-10-06T08:25:16.195Z,8.20
2018-10-06T08:27:20.347Z,8.25
2018-10-06T08:29:24.414Z,8.20
2018-10-06T08:31:28.423Z,9.13
2018-10-06T08:33:32.432Z,8.47
2018-10-06T08:35:36.544Z,8.57
2018-10-06T08:37:40.594Z,8.90
2018-10-06T08:39:44.635Z,9.90
2018-10-06T08:41:48.734Z,9.83
2018-10-06T08:43:52.929Z,10.10
2018-10-06T08:45:56.857Z,10.40
2018-10-06T08:48:01.027Z,9.20
2018-10-06T08:50:05.199Z,9.80
2018-10-06T08:52:09.186Z,8.83
2018-10-06T08:54:13.354Z,8.80
2018-10-06T08:56:17.469Z,9.57
2018-10-06T08:58:21.370Z,8.60
2018-10-06T09:00:25.396Z,9.30
2018-10-06T09:02:29.528Z,9.03
2018-10-06T09:04:33.594Z,8.67
2018-10-06T09:06:37.627Z,9.00
2018-10-06T09:08:41.779Z,9.40
2018-10-06T09:10:45.854Z,9.30
2018-10-06T09:12:50.763Z,9.77
2018-10-06T09:14:54.773Z,9.00
2018-10-06T09:16:58.786Z,8.43
2018-10-06T09:19:02.970Z,8.40
2018-10-06T09:21:06.978Z,8.87
2018-10-06T09:23:12.110Z,8.30
2018-10-06T09:25:16.111Z,7.90
2018-10-06T09:27:19.986Z,9.20
2018-10-06T09:29:24.009Z,8.13
2018-10-06T09:31:28.222Z,8.50
2018-10-06T09:33:32.453Z,7.33
2018-10-06T09:35:36.604Z,8.40
2018-10-06T09:37:40.620Z,7.90
2018-10-06T09:39:44.639Z,8.23
2018-10-06T09:41:48.641Z,7.73
2018-10-06T09:43:52.733Z,7.30
2018-10-06T09:45:56.684Z,7.73
2018-10-06T09:48:00.704Z,7.40
2018-10-06T09:50:04.813Z,6.10
2018-10-06T09:52:08.823Z,4.13
2018-10-06T09:54:12.792Z,4.67
2018-10-06T09:56:17.740Z,3.70
2018-10-06T09:58:21.844Z,4.10
2018-10-06T10:01:34.102Z,4.27
2018-10-06T10:03:43.352Z,4.00
2018-10-06T10:05:49.370Z,4.00
2018-10-06T10:07:53.356Z,3.93
2018-10-06T10:09:57.457Z,4.20
2018-10-06T10:12:01.237Z,4.20
2018-10-06T10:14:05.434Z,3.60
2018-10-06T10:16:09.501Z,3.90
2018-10-06T10:18:13.591Z,3.93
2018-10-06T10:20:17.284Z,3.67
2018-10-06T10:22:21.093Z,4.20
2018-10-06T10:24:24.635Z,4.37
2018-10-06T10:26:28.443Z,4.33
2018-10-06T10:28:32.292Z,4.20
2018-10-06T10:30:36.526Z,4.03
2018-10-06T10:32:40.272Z,4.03
2018-10-06T10:34:44.123Z,3.50
2018-10-06T10:36:47.904Z,4.17
2018-10-06T10:38:51.986Z,4.50
2018-10-06T10:40:55.776Z,4.37
2018-10-06T10:42:59.540Z,4.43
2018-10-06T10:45:03.398Z,3.93
2018-10-06T10:47:07.356Z,4.10
2018-10-06T10:49:11.151Z,3.93
2018-10-06T10:51:14.933Z,4.40
2018-10-06T10:53:19.542Z,4.53
2018-10-06T10:55:23.328Z,3.92
2018-10-06T10:57:27.068Z,4.27
2018-10-06T10:59:30.834Z,3.67
2018-10-06T11:01:34.645Z,3.30
2018-10-06T11:03:38.436Z,3.33
2018-10-06T11:05:42.216Z,3.42
2018-10-06T11:07:46.183Z,3.63
2018-10-06T11:09:50.127Z,3.27
2018-10-06T11:11:54.470Z,3.57
2018-10-06T11:13:58.709Z,3.57
2018-10-06T11:16:02.529Z,3.20
2018-10-06T11:18:06.750Z,3.70
2018-10-06T11:20:10.772Z,3.60
2018-10-06T11:22:15.373Z,3.40
2018-10-06T11:24:19.198Z,3.10
2018-10-06T11:26:23.363Z,3.60
2018-10-06T11:28:27.273Z,3.00
2018-10-06T11:30:31.359Z,2.93
2018-10-06T11:32:35.336Z,2.90
2018-10-06T11:34:39.119Z,3.00
2018-10-06T11:36:43.107Z,3.00
2018-10-06T11:38:47.206Z,2.87
2018-10-06T11:40:51.018Z,3.50
2018-10-06T11:42:54.899Z,3.07
2018-10-06T11:44:58.806Z,2.98
2018-10-06T11:47:02.673Z,2.60
2018-10-06T11:49:06.812Z,2.70
2018-10-06T11:51:10.662Z,3.23
2018-10-06T11:53:14.815Z,3.03
2018-10-06T11:55:18.624Z,3.00
2018-10-06T11:57:22.746Z,2.73
2018-10-06T11:59:26.579Z,3.00
2018-10-06T12:01:30.646Z,2.73
2018-10-06T12:03:34.643Z,2.73
2018-10-06T12:05:38.552Z,2.40
2018-10-06T12:07:42.413Z,2.70
2018-10-06T12:09:46.196Z,2.67
2018-10-06T12:11:49.996Z,2.37
2018-10-06T12:13:54.901Z,2.73
2018-10-06T12:15:58.695Z,2.80
2018-10-06T12:18:02.458Z,2.33
2018-10-06T12:20:06.433Z,2.70
2018-10-06T12:22:10.328Z,2.50
2018-10-06T12:24:14.266Z,2.50
2018-10-06T12:26:18.163Z,2.50
2018-10-06T12:28:22.078Z,2.77
2018-10-06T12:30:25.968Z,2.40
2018-10-06T12:32:29.703Z,2.83
2018-10-06T12:34:33.607Z,2.58
2018-10-06T13:00:18.082Z,2.50
2018-10-06T13:02:22.065Z,3.00
2018-10-06T13:04:25.817Z,2.80
2018-10-06T13:06:30.350Z,2.47
2018-10-06T13:08:35.648Z,3.00
2018-10-06T13:10:42.030Z,2.50
2018-10-06T13:12:45.904Z,2.83
2018-10-06T13:14:49.760Z,2.67
2018-10-06T13:16:53.595Z,2.50
2018-10-06T13:18:57.397Z,3.23
2018-10-06T13:21:01.196Z,3.00
2018-10-06T13:23:04.986Z,2.87
2018-10-06T13:25:08.809Z,3.37
2018-10-06T13:27:12.571Z,3.30
2018-10-06T13:29:16.398Z,2.80
2018-10-06T13:31:20.276Z,2.63
2018-10-06T13:33:24.147Z,2.80
2018-10-06T13:35:27.929Z,2.67
2018-10-06T13:37:31.727Z,2.70
2018-10-06T13:39:35.640Z,2.60
2018-10-06T13:41:39.431Z,2.80
2018-10-06T13:43:43.214Z,3.07
2018-10-06T13:45:47.057Z,2.83
2018-10-06T13:47:50.824Z,2.83
2018-10-06T13:49:54.862Z,2.70
2018-10-06T13:51:58.748Z,2.73
2018-10-06T13:54:02.745Z,2.50
2018-10-06T13:56:06.789Z,3.00
2018-10-06T13:58:10.859Z,2.70
2018-10-06T14:00:14.708Z,2.83
2018-10-06T14:02:19.748Z,2.53
2018-10-06T14:04:23.618Z,2.57
2018-10-06T14:06:27.433Z,2.80
2018-10-06T14:08:31.184Z,2.70
2018-10-06T14:10:35.334Z,2.50
2018-10-06T14:12:39.151Z,2.47
2018-10-06T14:14:42.881Z,2.60
2018-10-06T14:16:47.827Z,2.97
2018-10-06T14:18:51.919Z,2.60
2018-10-06T14:20:55.723Z,2.50
2018-10-06T14:22:59.712Z,2.80
2018-10-06T14:25:03.536Z,3.03
2018-10-06T14:27:07.348Z,2.77
2018-10-06T14:29:11.111Z,3.20
2018-10-06T14:31:14.870Z,2.80
2018-10-06T14:33:18.911Z,3.23
2018-10-06T14:35:22.760Z,2.93
2018-10-06T14:37:26.584Z,2.70
2018-10-06T14:39:30.428Z,2.60
2018-10-06T14:41:34.580Z,2.50
2018-10-06T14:43:38.719Z,3.10
2018-10-06T14:45:42.540Z,2.80
2018-10-06T14:47:46.522Z,2.90
2018-10-06T14:49:50.397Z,2.53
2018-10-06T14:51:54.579Z,3.33
2018-10-06T14:53:58.648Z,2.57
2018-10-06T14:56:02.426Z,2.63
2018-10-06T14:58:06.592Z,3.00
2018-10-06T15:00:10.387Z,2.80
2018-10-06T15:02:14.115Z,3.00
2018-10-06T15:04:18.095Z,3.00
2018-10-06T15:06:21.885Z,2.83
2018-10-06T15:08:25.698Z,2.60
2018-10-06T15:10:29.535Z,2.70
2018-10-06T15:12:33.416Z,2.90
2018-10-06T15:14:37.210Z,2.70
2018-10-06T15:16:41.052Z,5.33
2018-10-06T15:18:44.833Z,4.87
2018-10-06T15:20:48.554Z,6.70
2018-10-06T15:22:52.375Z,5.83
2018-10-06T15:24:56.213Z,2.90
2018-10-06T15:27:00.042Z,2.80
2018-10-06T15:29:03.867Z,2.40
2018-10-06T15:31:08.105Z,3.20
2018-10-06T15:33:12.095Z,3.00
2018-10-06T15:35:15.892Z,3.00
2018-10-06T15:37:19.810Z,3.30
2018-10-06T15:39:23.754Z,2.80
2018-10-06T15:41:27.576Z,3.20
2018-10-06T15:43:31.366Z,2.83
2018-10-06T15:45:35.411Z,2.83
2018-10-06T15:47:39.617Z,3.70
2018-10-06T15:49:43.610Z,2.93
2018-10-06T15:51:47.592Z,2.93
2018-10-06T15:53:51.643Z,3.47
2018-10-06T15:55:55.674Z,3.20
2018-10-06T15:57:59.738Z,3.97
2018-10-06T16:00:03.618Z,3.80
2018-10-06T16:02:07.446Z,11.90
2018-10-06T16:04:11.248Z,72.60
2018-10-06T16:06:15.058Z,144.17
2018-10-06T16:08:19.212Z,75.60
2018-10-06T16:10:23.184Z,9.07
2018-10-06T16:12:27.053Z,3.70
2018-10-06T16:14:30.888Z,3.87
2018-10-06T16:16:34.726Z,3.07
2018-10-06T16:18:38.720Z,3.03
2018-10-06T16:20:42.560Z,3.00
2018-10-06T16:22:46.368Z,3.87
2018-10-06T16:24:50.162Z,5.20
2018-10-06T16:26:53.991Z,5.60
2018-10-06T16:28:57.794Z,8.70
2018-10-06T16:31:01.638Z,5.40
2018-10-06T16:33:06.892Z,6.90
2018-10-06T16:35:10.679Z,12.07
2018-10-06T16:37:14.791Z,6.70
2018-10-06T16:39:19.060Z,7.23
2018-10-06T16:41:23.012Z,6.83
2018-10-06T16:43:27.172Z,6.43
2018-10-06T16:45:31.211Z,6.10
2018-10-06T16:47:35.941Z,14.13
2018-10-06T16:49:40.362Z,9.17
2018-10-06T16:51:44.260Z,6.25
2018-10-06T16:53:48.051Z,3.60
2018-10-06T16:55:53.184Z,3.70
2018-10-06T16:57:57.314Z,3.40
2018-10-06T17:00:01.314Z,3.10
2018-10-06T17:02:06.980Z,3.20
2018-10-06T17:04:10.728Z,3.42
2018-10-06T17:06:24.987Z,3.40
2018-10-06T17:08:34.498Z,3.60
2018-10-06T17:10:38.583Z,3.50
2018-10-06T17:12:42.511Z,4.40
2018-10-06T17:14:46.394Z,4.20
2018-10-06T17:16:52.196Z,5.37
2018-10-06T17:18:56.255Z,6.93
2018-10-06T17:21:00.140Z,11.57
2018-10-06T17:23:04.018Z,5.50
2018-10-06T17:25:07.838Z,4.60
2018-10-06T17:27:11.845Z,4.37
2018-10-06T17:29:15.831Z,4.40
2018-10-06T17:31:19.806Z,4.37
2018-10-06T17:33:24.027Z,4.60
2018-10-06T17:35:27.902Z,11.57
2018-10-06T17:37:31.894Z,21.77
2018-10-06T17:39:35.909Z,7.95
2018-10-06T17:41:39.897Z,5.53
2018-10-06T17:43:43.795Z,43.40
2018-10-06T17:45:47.816Z,73.60
2018-10-06T17:47:51.637Z,49.97
2018-10-06T17:49:55.529Z,31.50
2018-10-06T17:51:59.365Z,60.67
2018-10-06T17:54:03.231Z,35.88
2018-10-06T17:56:07.062Z,11.17
2018-10-06T17:58:10.993Z,7.07
2018-10-06T18:00:14.805Z,7.20
2018-10-06T18:02:18.568Z,9.20
2018-10-06T18:04:22.458Z,5.23
2018-10-06T18:06:26.255Z,6.73
2018-10-06T18:08:30.047Z,15.40
2018-10-06T18:10:38.852Z,10.10
2018-10-06T18:12:42.708Z,9.60
2018-10-06T18:14:46.606Z,8.40
2018-10-06T18:16:50.562Z,8.00
2018-10-06T18:18:55.266Z,13.70
2018-10-06T18:20:59.138Z,25.93
2018-10-06T18:23:02.983Z,11.20
2018-10-06T18:25:06.799Z,9.90
2018-10-06T18:27:10.777Z,9.40
2018-10-06T18:29:15.119Z,11.00
2018-10-06T18:31:18.943Z,8.70
2018-10-06T18:33:22.899Z,38.70
2018-10-06T18:35:28.106Z,102.57
2018-10-06T18:37:34.382Z,115.63
2018-10-06T18:39:38.268Z,90.63
2018-10-06T18:41:42.379Z,28.10
2018-10-06T18:43:46.873Z,19.17
2018-10-06T18:45:50.918Z,14.65
2018-10-06T18:47:54.678Z,10.30
2018-10-06T18:49:58.631Z,10.40
2018-10-06T18:52:03.432Z,12.10
2018-10-06T18:54:07.407Z,9.70
2018-10-06T18:56:11.249Z,7.50
2018-10-06T18:58:15.108Z,8.03
2018-10-06T19:00:19.180Z,8.47
2018-10-06T19:02:23.220Z,7.95
2018-10-06T19:04:27.021Z,8.10
2018-10-06T19:06:31.382Z,11.90
2018-10-06T19:08:52.212Z,55.50
2018-10-06T19:10:56.040Z,52.93
2018-10-06T19:12:59.849Z,119.03
2018-10-06T19:15:03.702Z,495.17
2018-10-06T19:17:07.665Z,222.97
2018-10-06T19:19:12.195Z,158.40
2018-10-06T19:21:15.999Z,46.70
2018-10-06T19:23:19.780Z,34.73
2018-10-06T19:25:23.614Z,32.53
2018-10-06T19:27:27.480Z,23.10
2018-10-06T19:29:31.395Z,26.73
2018-10-06T19:31:35.212Z,47.73
2018-10-06T19:33:38.998Z,59.70
2018-10-06T19:35:42.830Z,21.93
2018-10-06T19:37:46.918Z,43.33
2018-10-06T19:39:51.184Z,33.43
2018-10-06T19:41:55.336Z,20.77
2018-10-06T19:43:59.547Z,21.80
2018-10-06T19:46:04.857Z,28.73
2018-10-06T19:48:09.557Z,69.80
2018-10-06T19:50:14.346Z,19.23
2018-10-06T19:52:18.259Z,23.53
2018-10-06T19:54:22.457Z,35.90
2018-10-06T19:56:27.491Z,26.30
2018-10-06T19:58:31.346Z,16.10
2018-10-06T20:00:35.276Z,19.40
2018-10-06T20:02:39.120Z,19.48
2018-10-06T20:04:42.989Z,22.27
2018-10-06T20:06:47.452Z,23.03
2018-10-06T20:08:51.264Z,22.95
2018-10-06T20:10:55.137Z,20.10
2018-10-06T20:12:58.962Z,29.90
2018-10-06T20:15:02.786Z,20.67
2018-10-06T20:17:06.679Z,21.87
2018-10-06T20:19:10.487Z,20.27
2018-10-06T20:21:14.237Z,25.10
2018-10-06T20:23:18.193Z,25.40
2018-10-06T20:25:22.190Z,29.00
2018-10-06T20:27:25.992Z,34.00
2018-10-06T20:29:29.807Z,32.03
2018-10-06T20:31:33.592Z,30.20
2018-10-06T20:33:37.440Z,28.50
2018-10-06T20:35:41.233Z,33.63
2018-10-06T20:37:45.013Z,28.87
2018-10-06T20:39:48.776Z,29.47
2018-10-06T20:41:52.849Z,26.00
2018-10-06T20:43:56.655Z,23.37
2018-10-06T20:46:00.514Z,21.90
2018-10-06T20:48:04.316Z,21.80
2018-10-06T20:50:08.341Z,20.00
2018-10-06T20:52:13.066Z,18.75
2018-10-06T20:54:16.848Z,19.27
2018-10-06T20:56:20.586Z,19.93
2018-10-06T20:58:24.369Z,18.57
2018-10-06T21:00:28.203Z,18.60
2018-10-06T21:02:32.078Z,20.00
2018-10-06T21:04:36.196Z,20.70
2018-10-06T21:06:40.136Z,22.40
2018-10-06T21:08:44.147Z,20.07
2018-10-06T21:10:48.049Z,19.60
2018-10-06T21:12:52.025Z,19.67
2018-10-06T21:14:55.893Z,19.10
2018-10-06T21:16:59.798Z,19.97
2018-10-06T21:19:03.590Z,20.33
2018-10-06T21:21:07.351Z,22.00
2018-10-06T21:23:11.092Z,21.30
2018-10-06T21:25:14.893Z,23.30
2018-10-06T21:27:18.670Z,22.53
2018-10-06T21:29:22.498Z,22.93
2018-10-06T21:31:26.357Z,24.57
2018-10-06T21:33:30.151Z,24.80
2018-10-06T21:35:33.923Z,23.93
2018-10-06T21:37:37.684Z,24.77
2018-10-06T21:39:41.501Z,25.33
2018-10-06T21:41:45.280Z,26.60
2018-10-06T21:43:49.078Z,25.13
2018-10-06T21:45:52.902Z,28.83
2018-10-06T21:47:56.636Z,29.10
2018-10-06T21:50:00.450Z,27.70
2018-10-06T21:52:04.284Z,32.03
2018-10-06T21:54:08.105Z,31.93
2018-10-06T21:56:11.847Z,31.73
2018-10-06T21:58:15.792Z,34.50
2018-10-06T22:00:19.683Z,36.30
2018-10-06T22:02:24.163Z,35.93
2018-10-06T22:04:27.943Z,36.10
2018-10-06T22:06:31.719Z,38.47
2018-10-06T22:08:35.768Z,40.30
2018-10-06T22:10:40.332Z,39.83
2018-10-06T22:12:44.352Z,40.00
2018-10-06T22:14:48.234Z,36.50
2018-10-06T22:16:52.050Z,36.47
2018-10-06T22:18:55.827Z,39.20
2018-10-06T22:20:59.575Z,36.17
2018-10-06T22:23:03.361Z,36.77
2018-10-06T22:25:07.164Z,36.97
2018-10-06T22:27:10.925Z,37.57
2018-10-06T22:29:14.754Z,36.50
2018-10-06T22:31:18.620Z,35.53
2018-10-06T22:33:22.446Z,37.20
2018-10-06T22:35:26.194Z,37.97
2018-10-06T22:37:29.975Z,38.70
2018-10-06T22:39:33.736Z,35.80
2018-10-06T22:41:37.760Z,40.13
2018-10-06T22:43:41.581Z,38.70
2018-10-06T22:45:45.296Z,41.23
2018-10-06T22:47:49.055Z,39.20
2018-10-06T22:49:52.864Z,41.50
2018-10-06T22:51:56.697Z,42.30
2018-10-06T22:54:00.444Z,42.43
2018-10-06T22:56:04.280Z,41.33
2018-10-06T22:58:08.057Z,42.17
2018-10-06T23:00:11.988Z,41.27
2018-10-06T23:02:15.724Z,42.10
2018-10-06T23:04:19.846Z,44.10
2018-10-06T23:06:23.605Z,42.57
2018-10-06T23:08:27.338Z,43.00
2018-10-06T23:10:31.092Z,43.20
2018-10-06T23:12:34.854Z,45.17
2018-10-06T23:14:38.639Z,43.03
2018-10-06T23:16:42.553Z,44.70
2018-10-06T23:18:46.324Z,45.17
2018-10-06T23:20:50.101Z,45.30
2018-10-06T23:22:53.836Z,45.70
2018-10-06T23:24:57.714Z,45.73
2018-10-06T23:27:01.555Z,47.07
2018-10-06T23:29:05.333Z,44.87
2018-10-06T23:31:09.366Z,51.13
2018-10-06T23:33:13.307Z,48.87
2018-10-06T23:35:17.095Z,47.27
2018-10-06T23:37:20.875Z,47.33
2018-10-06T23:39:24.845Z,44.23
2018-10-06T23:41:28.591Z,44.40
2018-10-06T23:43:32.315Z,44.87
2018-10-06T23:45:36.305Z,45.13
2018-10-06T23:47:40.112Z,44.63
2018-10-06T23:49:43.863Z,45.77
2018-10-06T23:51:47.625Z,48.27
2018-10-06T23:53:51.360Z,45.47
2018-10-06T23:55:55.100Z,45.87
2018-10-06T23:57:58.876Z,52.20
